Time;durP1;ratioP1;P1;durP2;ratioP2;P2;SDS_P1;SDS_P2;PMS_P1;PMS_P2;Temp;Humidity;BMP_temperature;BMP_pressure;BME280_temperature;BME280_humidity;BME280_pressure;Samples;Min_cycle;Max_cycle;Signal;HPM_P1;HPM_P2
2022/05/29 00:02:07;;;;;;;2.50;1.55;;;13.30;49.80;;;;;;5094116;28;20024;-72
2022/05/29 00:04:33;;;;;;;3.38;1.33;;;13.20;50.10;;;;;;5076879;28;20033;-72
2022/05/29 00:06:59;;;;;;;4.30;1.77;;;13.20;50.00;;;;;;5075055;28;20032;-72
2022/05/29 00:09:40;;;;;;;3.92;1.35;;;13.20;50.00;;;;;;5075124;28;20029;-72
2022/05/29 00:12:08;;;;;;;5.28;2.30;;;13.10;50.40;;;;;;5075061;28;20103;-72
2022/05/29 00:14:40;;;;;;;3.28;1.77;;;13.20;50.50;;;;;;5074981;28;20063;-72
2022/05/29 00:17:06;;;;;;;1.55;1.33;;;13.10;50.70;;;;;;5074745;28;20029;-72
2022/05/29 00:19:32;;;;;;;3.75;1.40;;;13.10;50.50;;;;;;5074890;28;20064;-72
2022/05/29 00:21:57;;;;;;;2.65;1.80;;;13.10;50.80;;;;;;5072371;28;20450;-72
2022/05/29 00:24:24;;;;;;;1.73;1.40;;;13.10;50.80;;;;;;5074466;28;20468;-72
2022/05/29 00:26:51;;;;;;;3.28;1.85;;;13.10;50.80;;;;;;5074434;28;20024;-73
2022/05/29 00:29:16;;;;;;;3.58;1.63;;;13.00;50.80;;;;;;5074948;28;20021;-73
2022/05/29 00:31:42;;;;;;;5.18;1.63;;;13.00;51.20;;;;;;5074449;28;20078;-73
2022/05/29 00:34:08;;;;;;;13.40;9.02;;;13.00;51.30;;;;;;5073271;28;20123;-73
2022/05/29 00:36:39;;;;;;;10.00;5.75;;;13.00;51.60;;;;;;5073095;28;20031;-73
2022/05/29 00:39:06;;;;;;;5.50;3.08;;;13.00;51.70;;;;;;5073231;28;20376;-72
2022/05/29 00:41:34;;;;;;;6.57;1.92;;;13.00;51.70;;;;;;5073134;28;20449;-73
2022/05/29 00:44:09;;;;;;;4.97;1.80;;;12.90;51.80;;;;;;5074288;28;20031;-73
2022/05/29 00:46:36;;;;;;;3.00;1.20;;;12.90;52.20;;;;;;5074314;28;20033;-73
2022/05/29 00:49:07;;;;;;;2.85;1.10;;;12.90;52.20;;;;;;5074245;28;20078;-73
2022/05/29 00:51:54;;;;;;;2.45;1.67;;;12.90;52.30;;;;;;5072849;28;20066;-73
2022/05/29 00:54:21;;;;;;;5.13;1.60;;;12.90;52.00;;;;;;5072027;28;20035;-73
2022/05/29 00:56:47;;;;;;;4.50;2.05;;;12.80;52.20;;;;;;5072846;28;20025;-72
2022/05/29 00:59:21;;;;;;;3.85;2.53;;;12.80;52.20;;;;;;5073786;28;20099;-73
2022/05/29 01:01:48;;;;;;;5.90;2.65;;;12.80;52.20;;;;;;5080059;28;20027;-73
2022/05/29 01:04:14;;;;;;;5.22;2.75;;;12.80;52.30;;;;;;5093031;28;20077;-73
2022/05/29 01:06:40;;;;;;;4.40;2.15;;;12.70;52.10;;;;;;5092847;28;20035;-73
2022/05/29 01:09:08;;;;;;;5.22;2.30;;;12.70;52.30;;;;;;5093674;28;20484;-73
2022/05/29 01:11:54;;;;;;;5.22;2.30;;;12.70;52.30;;;;;;5092858;28;20437;-73
2022/05/29 01:14:51;;;;;;;10.15;2.63;;;12.60;52.40;;;;;;5094140;28;20020;-73
2022/05/29 01:17:42;;;;;;;5.82;2.38;;;12.60;52.60;;;;;;5082669;28;20043;-73
2022/05/29 01:20:49;;;;;;;9.35;2.42;;;12.60;52.80;;;;;;5093980;28;20055;-73
2022/05/29 01:23:42;;;;;;;7.25;2.38;;;12.50;52.70;;;;;;5011427;28;20367;-73
2022/05/29 01:26:26;;;;;;;8.10;4.00;;;12.50;52.80;;;;;;4995039;28;20568;-73
2022/05/29 01:29:04;;;;;;;7.85;3.35;;;12.50;52.80;;;;;;4995371;28;20034;-73
2022/05/29 01:31:45;;;;;;;7.43;3.38;;;12.40;53.00;;;;;;5011552;28;20450;-73
2022/05/29 01:34:16;;;;;;;4.90;2.92;;;12.40;53.40;;;;;;4995368;28;20048;-73
2022/05/29 01:37:07;;;;;;;7.25;3.42;;;12.30;53.10;;;;;;5011990;28;20117;-73
2022/05/29 01:39:50;;;;;;;5.28;2.80;;;12.30;53.50;;;;;;4995005;28;20034;-72
2022/05/29 01:42:40;;;;;;;6.68;3.00;;;12.30;53.90;;;;;;4994901;28;20133;-73
2022/05/29 01:45:28;;;;;;;6.07;2.40;;;12.20;54.00;;;;;;5011371;28;20572;-73
2022/05/29 01:48:13;;;;;;;4.10;2.05;;;12.20;54.10;;;;;;5011338;28;20045;-73
2022/05/29 01:50:44;;;;;;;4.07;2.22;;;12.20;53.90;;;;;;4995051;28;20033;-73
2022/05/29 01:53:20;;;;;;;5.78;2.70;;;12.20;54.00;;;;;;5011197;28;20042;-73
2022/05/29 01:55:53;;;;;;;5.25;2.40;;;12.10;54.20;;;;;;5011196;28;20041;-73
2022/05/29 01:58:31;;;;;;;5.78;2.70;;;12.10;55.10;;;;;;5026462;28;20070;-73
2022/05/29 02:01:01;;;;;;;6.45;2.42;;;12.10;54.60;;;;;;5092047;28;20460;-72
2022/05/29 02:03:38;;;;;;;4.50;2.60;;;12.10;54.60;;;;;;5093192;28;20115;-73
2022/05/29 02:06:22;;;;;;;4.50;2.17;;;12.10;54.80;;;;;;5092091;28;20494;-73
2022/05/29 02:09:01;;;;;;;5.78;2.58;;;12.10;54.80;;;;;;5092962;28;20044;-72
2022/05/29 02:11:28;;;;;;;5.30;2.72;;;12.10;54.90;;;;;;5092193;28;20533;-73
2022/05/29 02:14:06;;;;;;;4.97;2.38;;;12.10;54.80;;;;;;5093321;28;20107;-73
2022/05/29 02:16:41;;;;;;;9.35;2.28;;;12.10;55.00;;;;;;5092166;28;20056;-73
2022/05/29 02:19:15;;;;;;;3.60;2.20;;;12.10;54.80;;;;;;5093209;28;20103;-72
2022/05/29 02:21:46;;;;;;;5.32;2.55;;;12.00;55.00;;;;;;5092109;28;20031;-72
2022/05/29 02:24:17;;;;;;;5.47;2.58;;;12.00;55.10;;;;;;5092030;28;20038;-73
2022/05/29 02:27:07;;;;;;;6.90;2.53;;;12.00;55.10;;;;;;5091760;28;20035;-73
2022/05/29 02:29:33;;;;;;;7.50;2.53;;;12.00;55.30;;;;;;5053725;28;20036;-72
2022/05/29 02:32:12;;;;;;;4.93;2.50;;;12.00;55.10;;;;;;5091967;28;20024;-73
2022/05/29 02:35:14;;;;;;;5.32;2.53;;;11.90;55.20;;;;;;5091933;28;20468;-73
2022/05/29 02:38:00;;;;;;;7.72;3.55;;;11.90;55.20;;;;;;5093528;28;20016;-72
2022/05/29 02:40:50;;;;;;;5.13;2.45;;;11.90;55.20;;;;;;5092944;28;20024;-73
2022/05/29 02:43:22;;;;;;;5.05;2.50;;;11.90;55.40;;;;;;5091890;28;20028;-73
2022/05/29 02:46:01;;;;;;;6.20;2.78;;;11.90;55.40;;;;;;5095655;28;20035;-73
2022/05/29 02:48:54;;;;;;;5.82;2.80;;;11.80;55.50;;;;;;5097098;28;20296;-73
2022/05/29 02:51:41;;;;;;;7.50;2.60;;;11.80;55.60;;;;;;5096767;28;20031;-72
2022/05/29 02:54:11;;;;;;;14.00;2.75;;;11.80;55.40;;;;;;5096968;28;20107;-73
2022/05/29 02:56:37;;;;;;;5.13;2.53;;;11.80;55.50;;;;;;5095623;28;20028;-73
2022/05/29 02:59:03;;;;;;;5.55;2.78;;;11.80;55.60;;;;;;5088492;28;20056;-72
2022/05/29 03:02:10;;;;;;;6.63;2.40;;;11.80;55.80;;;;;;5076521;28;20060;-72
2022/05/29 03:05:17;;;;;;;6.20;3.33;;;11.70;56.00;;;;;;5037555;28;20037;-73
2022/05/29 03:08:24;;;;;;;10.25;5.53;;;11.70;56.00;;;;;;5076321;28;20131;-73
2022/05/29 03:11:27;;;;;;;12.15;5.18;;;11.70;56.00;;;;;;5075003;28;20039;-72
2022/05/29 03:14:32;;;;;;;10.88;7.00;;;11.70;56.10;;;;;;5076322;28;20032;-72
2022/05/29 03:17:14;;;;;;;10.27;6.03;;;11.70;56.10;;;;;;5045265;28;20036;-73
2022/05/29 03:20:06;;;;;;;10.73;6.22;;;11.70;56.00;;;;;;5074882;28;20061;-72
2022/05/29 03:22:54;;;;;;;6.38;4.10;;;11.70;56.20;;;;;;5075816;28;20033;-73
2022/05/29 03:25:57;;;;;;;5.07;2.92;;;11.70;56.20;;;;;;5074479;28;20040;-72
2022/05/29 03:28:40;;;;;;;4.65;2.60;;;11.70;56.30;;;;;;5013633;28;20037;-72
2022/05/29 03:31:12;;;;;;;8.02;3.22;;;11.70;56.20;;;;;;4997424;28;20034;-72
2022/05/29 03:33:40;;;;;;;10.48;6.20;;;11.70;56.10;;;;;;5013855;28;20038;-72
2022/05/29 03:36:09;;;;;;;9.52;5.50;;;11.80;56.40;;;;;;5013728;28;20096;-73
2022/05/29 03:38:34;;;;;;;7.20;4.47;;;11.80;56.50;;;;;;5013678;28;20038;-73
2022/05/29 03:41:08;;;;;;;10.60;4.82;;;11.80;56.40;;;;;;5013716;28;20539;-73
2022/05/29 03:43:34;;;;;;;6.85;3.20;;;11.80;56.60;;;;;;4997108;28;20033;-73
2022/05/29 03:46:00;;;;;;;5.15;2.75;;;11.80;56.60;;;;;;5013586;28;20084;-72
2022/05/29 03:48:26;;;;;;;6.90;3.08;;;11.80;57.20;;;;;;5013595;28;20133;-73
2022/05/29 03:50:51;;;;;;;5.90;2.33;;;11.80;56.60;;;;;;5013501;28;20038;-73
2022/05/29 03:53:17;;;;;;;9.40;3.53;;;11.80;56.70;;;;;;4996982;28;20037;-72
2022/05/29 03:55:43;;;;;;;6.15;2.78;;;11.90;56.90;;;;;;5013187;28;20037;-72
2022/05/29 03:58:09;;;;;;;21.48;5.43;;;11.90;56.90;;;;;;5008820;28;20080;-73
2022/05/29 04:00:34;;;;;;;13.30;4.40;;;11.90;57.40;;;;;;5016510;28;20022;-73
2022/05/29 04:03:02;;;;;;;13.80;4.90;;;12.00;57.80;;;;;;5039016;28;20036;-72
2022/05/29 04:05:28;;;;;;;13.45;4.80;;;12.10;58.30;;;;;;5074077;28;20028;-72
2022/05/29 04:13:27;;;;;;;9.70;3.90;;;12.30;58.30;;;;;;5075266;28;20158;-73
2022/05/29 04:15:53;;;;;;;11.10;3.95;;;12.40;58.20;;;;;;5073807;28;20497;-72
2022/05/29 04:18:20;;;;;;;9.70;3.30;;;12.50;58.30;;;;;;5073806;28;20111;-72
2022/05/29 04:20:51;;;;;;;9.05;3.30;;;12.50;57.90;;;;;;5075041;28;20021;-73
2022/05/29 04:23:17;;;;;;;4.32;2.33;;;12.70;57.80;;;;;;5075237;28;20029;-73
2022/05/29 04:25:44;;;;;;;6.38;3.65;;;12.80;57.60;;;;;;5074942;28;20488;-73
2022/05/29 04:28:10;;;;;;;7.18;3.00;;;12.90;57.40;;;;;;5074610;28;20024;-73
2022/05/29 04:30:36;;;;;;;9.13;3.05;;;13.00;57.20;;;;;;5075100;28;20108;-72
2022/05/29 04:33:02;;;;;;;5.82;2.63;;;13.10;57.00;;;;;;5073431;28;20055;-72
2022/05/29 04:35:31;;;;;;;5.30;2.60;;;13.20;56.70;;;;;;5073450;28;20034;-72
2022/05/29 04:37:58;;;;;;;8.32;3.85;;;13.30;56.60;;;;;;5074716;28;20028;-72
2022/05/29 04:40:24;;;;;;;8.07;3.22;;;13.40;56.60;;;;;;5073344;28;20029;-73
2022/05/29 04:42:50;;;;;;;7.35;2.72;;;13.50;56.40;;;;;;5073172;28;20031;-73
2022/05/29 04:45:17;;;;;;;7.10;3.00;;;13.60;56.20;;;;;;5074572;28;20452;-72
2022/05/29 04:47:42;;;;;;;9.60;3.42;;;13.70;56.00;;;;;;5074502;28;20025;-72
2022/05/29 04:50:09;;;;;;;10.88;2.83;;;13.70;55.20;;;;;;5074717;28;20025;-72
2022/05/29 04:52:35;;;;;;;7.78;2.85;;;13.80;54.20;;;;;;5074117;28;20056;-73
2022/05/29 04:55:02;;;;;;;6.88;3.13;;;13.80;53.70;;;;;;5074364;28;20016;-72
2022/05/29 04:57:28;;;;;;;5.75;2.70;;;13.90;53.30;;;;;;5092122;28;20036;-72
2022/05/29 04:59:53;;;;;;;4.38;2.25;;;13.90;53.10;;;;;;5094529;28;20047;-73
2022/05/29 05:02:19;;;;;;;5.13;2.30;;;14.00;52.90;;;;;;5093026;28;20024;-72
2022/05/29 05:04:45;;;;;;;5.15;2.25;;;14.00;52.30;;;;;;5093110;28;20032;-72
2022/05/29 05:07:11;;;;;;;5.45;2.05;;;14.10;52.10;;;;;;5094053;28;20400;-72
2022/05/29 05:09:36;;;;;;;5.03;1.98;;;14.20;52.20;;;;;;5093829;28;20150;-72
2022/05/29 05:12:02;;;;;;;5.20;1.90;;;14.20;52.10;;;;;;5094303;28;20035;-72
2022/05/29 05:14:28;;;;;;;5.38;2.38;;;14.40;51.90;;;;;;5094136;28;20519;-72
2022/05/29 05:16:54;;;;;;;5.72;2.90;;;14.50;51.40;;;;;;5094473;28;20107;-72
2022/05/29 05:19:21;;;;;;;4.82;2.30;;;14.60;51.60;;;;;;5094186;28;20373;-72
2022/05/29 05:21:47;;;;;;;5.35;2.35;;;14.80;51.70;;;;;;5093806;28;20035;-73
2022/05/29 05:24:13;;;;;;;3.28;1.95;;;14.90;51.00;;;;;;5093755;28;20123;-73
2022/05/29 05:26:38;;;;;;;2.90;1.67;;;15.00;50.20;;;;;;5094028;28;20028;-72
2022/05/29 05:29:05;;;;;;;4.28;1.70;;;15.10;49.60;;;;;;5094087;28;20452;-72
2022/05/29 05:31:31;;;;;;;3.47;1.15;;;15.20;49.60;;;;;;5092712;28;20054;-72
2022/05/29 05:33:56;;;;;;;4.15;1.85;;;15.30;49.80;;;;;;5093925;28;20055;-73
2022/05/29 05:36:22;;;;;;;5.03;1.83;;;15.40;49.70;;;;;;5092655;28;20077;-73
2022/05/29 05:38:49;;;;;;;2.90;1.50;;;15.60;49.40;;;;;;5093890;28;20028;-73
2022/05/29 05:41:15;;;;;;;4.50;1.60;;;15.70;49.00;;;;;;5092614;28;20026;-73
2022/05/29 05:43:42;;;;;;;5.80;1.60;;;15.90;48.90;;;;;;5093725;28;20386;-73
2022/05/29 05:46:10;;;;;;;2.35;1.42;;;16.00;48.80;;;;;;5093520;28;20391;-73
2022/05/29 05:48:38;;;;;;;2.28;1.05;;;16.10;48.00;;;;;;5093721;28;20054;-73
2022/05/29 05:51:04;;;;;;;4.40;1.70;;;16.30;48.20;;;;;;5093734;28;20032;-73
2022/05/29 05:53:30;;;;;;;2.95;1.40;;;16.40;48.00;;;;;;5093670;28;20028;-73
2022/05/29 05:55:56;;;;;;;3.85;1.58;;;16.50;47.40;;;;;;5093567;28;20020;-73
2022/05/29 05:58:22;;;;;;;4.25;1.70;;;16.70;47.00;;;;;;5093611;28;20466;-73
2022/05/29 06:00:49;;;;;;;3.20;1.73;;;16.80;46.70;;;;;;5092252;28;20028;-73
2022/05/29 06:03:16;;;;;;;3.03;1.55;;;16.90;46.00;;;;;;5092195;28;20035;-73
2022/05/29 06:05:41;;;;;;;4.55;1.63;;;17.00;46.00;;;;;;5093275;28;20035;-73
2022/05/29 06:08:08;;;;;;;2.65;1.23;;;17.10;46.00;;;;;;5091718;28;20048;-74
2022/05/29 06:10:34;;;;;;;3.28;1.20;;;17.20;46.10;;;;;;5093183;28;20111;-73
2022/05/29 06:13:05;;;;;;;2.65;1.42;;;17.30;45.50;;;;;;5092097;28;20038;-73
2022/05/29 06:15:31;;;;;;;2.10;1.40;;;17.40;44.60;;;;;;5093446;28;20479;-73
2022/05/29 06:17:57;;;;;;;5.25;2.92;;;17.40;44.60;;;;;;5093627;28;20029;-73
2022/05/29 06:20:24;;;;;;;4.07;1.85;;;17.50;44.20;;;;;;5093711;28;20030;-73
2022/05/29 06:22:50;;;;;;;4.25;2.38;;;17.60;44.30;;;;;;5097369;28;20328;-73
2022/05/29 06:25:17;;;;;;;4.55;2.67;;;17.70;44.50;;;;;;5096134;28;20032;-73
2022/05/29 06:27:44;;;;;;;7.28;3.20;;;17.70;45.40;;;;;;5095211;28;20030;-73
2022/05/29 06:30:13;;;;;;;8.85;3.67;;;17.80;44.70;;;;;;5096840;28;20024;-73
2022/05/29 06:32:40;;;;;;;10.27;3.42;;;17.90;44.60;;;;;;5097086;28;20024;-73
2022/05/29 06:35:08;;;;;;;5.28;2.67;;;18.00;44.10;;;;;;5097392;28;20055;-73
2022/05/29 06:37:35;;;;;;;6.97;2.97;;;18.10;44.20;;;;;;5096003;28;20032;-73
2022/05/29 06:40:02;;;;;;;5.90;2.92;;;18.30;43.70;;;;;;5095857;28;20021;-73
2022/05/29 06:42:27;;;;;;;6.57;3.08;;;18.40;43.50;;;;;;5097255;28;20115;-73
2022/05/29 06:44:53;;;;;;;6.53;2.80;;;18.50;43.20;;;;;;5097488;28;20501;-73
2022/05/29 06:47:19;;;;;;;6.10;2.47;;;18.60;43.20;;;;;;5095499;28;20474;-73
2022/05/29 06:49:50;;;;;;;5.00;2.30;;;18.80;42.80;;;;;;5095737;28;20020;-73
2022/05/29 06:52:17;;;;;;;3.70;2.15;;;18.90;42.70;;;;;;5096727;28;20491;-73
2022/05/29 06:54:43;;;;;;;4.25;1.90;;;19.10;42.30;;;;;;5078070;28;20032;-73
2022/05/29 06:57:10;;;;;;;4.38;1.63;;;19.20;41.40;;;;;;5076823;28;20028;-73
2022/05/29 07:08:01;;;;;;;5.40;1.75;;;19.80;40.50;;;;;;5096281;28;20113;-73
2022/05/29 07:10:29;;;;;;;2.47;1.33;;;19.90;39.60;;;;;;5096717;28;20076;-73
2022/05/29 07:12:56;;;;;;;2.10;1.30;;;20.00;39.60;;;;;;5095266;28;20085;-73
2022/05/29 07:15:22;;;;;;;4.10;1.90;;;20.10;39.30;;;;;;5094874;28;20028;-73
2022/05/29 07:17:49;;;;;;;5.53;1.77;;;20.20;39.20;;;;;;5096302;28;20024;-73
2022/05/29 07:20:16;;;;;;;2.50;1.30;;;20.30;38.50;;;;;;5095152;28;20031;-73
2022/05/29 07:22:43;;;;;;;7.78;4.13;;;20.40;38.50;;;;;;5088663;28;20032;-73
2022/05/29 07:25:11;;;;;;;3.97;2.13;;;20.50;38.10;;;;;;5095119;28;20036;-73
2022/05/29 07:27:40;;;;;;;3.55;1.42;;;20.60;37.80;;;;;;5096391;28;20031;-73
2022/05/29 07:30:07;;;;;;;2.83;1.35;;;20.70;36.80;;;;;;5094953;28;20028;-73
2022/05/29 07:32:33;;;;;;;5.75;1.52;;;20.70;37.10;;;;;;5095672;28;20489;-73
2022/05/29 07:34:59;;;;;;;2.75;1.10;;;20.80;37.00;;;;;;5094622;28;20050;-73
2022/05/29 07:37:26;;;;;;;3.35;1.20;;;20.80;37.10;;;;;;5094806;28;20024;-73
2022/05/29 07:39:53;;;;;;;3.55;1.48;;;20.90;36.80;;;;;;5095743;28;20024;-73
2022/05/29 07:45:07;;;;;;;2.80;1.33;;;21.10;36.90;;;;;;5095991;28;20063;-73
2022/05/29 07:47:40;;;;;;;4.20;1.20;;;21.20;36.80;;;;;;5095943;28;20024;-73
2022/05/29 07:50:08;;;;;;;2.65;1.13;;;21.20;36.80;;;;;;5095441;28;20047;-73
2022/05/29 07:52:34;;;;;;;3.30;1.42;;;21.40;36.90;;;;;;5095606;28;20115;-74
2022/05/29 07:55:00;;;;;;;2.25;1.10;;;21.50;36.30;;;;;;5094466;28;20028;-73
2022/05/29 07:57:26;;;;;;;5.00;1.27;;;21.60;35.90;;;;;;5094389;28;20118;-73
2022/05/29 07:59:52;;;;;;;3.20;1.08;;;21.70;36.00;;;;;;5095433;28;20024;-73
2022/05/29 08:02:18;;;;;;;3.90;1.25;;;21.80;35.90;;;;;;5093946;28;20096;-73
2022/05/29 08:04:45;;;;;;;2.35;1.08;;;21.80;35.70;;;;;;5096610;28;20434;-73
2022/05/29 08:07:15;;;;;;;5.97;1.83;;;21.90;36.00;;;;;;5091593;28;20174;-73
2022/05/29 08:09:41;;;;;;;2.58;1.00;;;22.00;35.70;;;;;;5095523;28;20031;-73
2022/05/29 08:12:07;;;;;;;2.45;0.95;;;22.10;36.00;;;;;;5086229;28;20481;-73
2022/05/29 08:14:33;;;;;;;3.20;1.13;;;22.30;35.70;;;;;;5091806;28;20444;-73
2022/05/29 08:16:59;;;;;;;2.35;1.10;;;22.40;35.40;;;;;;5095309;28;20031;-73
2022/05/29 08:19:25;;;;;;;1.63;0.93;;;22.50;35.10;;;;;;5095289;28;20024;-73
2022/05/29 08:21:50;;;;;;;2.83;1.05;;;22.60;35.10;;;;;;5092195;28;20020;-73
2022/05/29 08:32:29;;;;;;;2.45;1.30;;;22.60;33.90;;;;;;5094442;28;20035;-73
2022/05/29 08:34:54;;;;;;;4.22;1.20;;;22.60;34.00;;;;;;5094093;28;20119;-73
2022/05/29 08:37:21;;;;;;;1.90;1.05;;;22.60;33.60;;;;;;5090497;28;20520;-73
2022/05/29 08:39:47;;;;;;;2.72;0.90;;;22.50;33.60;;;;;;5093340;28;20028;-72
2022/05/29 08:42:15;;;;;;;5.93;1.33;;;22.50;34.10;;;;;;5093364;28;20040;-73
2022/05/29 08:44:47;;;;;;;1.20;0.80;;;22.60;33.60;;;;;;5091939;28;20024;-73
2022/05/29 08:47:16;;;;;;;2.42;1.02;;;22.60;33.80;;;;;;5091176;28;20077;-73
2022/05/29 08:49:45;;;;;;;2.55;0.90;;;22.60;33.50;;;;;;5081699;28;20540;-73
2022/05/29 08:52:23;;;;;;;1.27;0.77;;;22.50;32.90;;;;;;5086827;28;20019;-73
2022/05/29 08:55:13;;;;;;;2.97;1.15;;;22.50;33.50;;;;;;5073987;28;20021;-73
2022/05/29 08:58:01;;;;;;;3.15;1.33;;;22.50;34.70;;;;;;5089938;28;20020;-73
2022/05/29 09:00:41;;;;;;;2.65;1.33;;;22.60;34.10;;;;;;5093026;28;20074;-73
2022/05/29 09:03:31;;;;;;;2.67;1.15;;;22.70;32.80;;;;;;5093007;28;20063;-73
2022/05/29 09:06:07;;;;;;;3.97;1.38;;;22.80;33.00;;;;;;5093306;28;20464;-73
2022/05/29 09:08:44;;;;;;;4.28;1.15;;;22.90;32.70;;;;;;5090817;28;20071;-73
2022/05/29 09:11:18;;;;;;;3.63;1.27;;;22.90;32.60;;;;;;5091386;28;20027;-73
2022/05/29 09:14:16;;;;;;;1.70;1.45;;;23.00;32.60;;;;;;5091755;28;20020;-73
2022/05/29 09:16:57;;;;;;;2.88;0.88;;;23.00;32.50;;;;;;5066395;28;20029;-73
2022/05/29 09:19:42;;;;;;;2.30;0.80;;;23.10;32.50;;;;;;5074202;28;20044;-73
2022/05/29 09:22:28;;;;;;;4.60;1.42;;;23.10;32.60;;;;;;5072088;28;20025;-73
2022/05/29 09:25:08;;;;;;;1.75;0.88;;;23.20;32.20;;;;;;5074473;28;20066;-73
2022/05/29 09:27:37;;;;;;;1.63;1.00;;;23.20;32.20;;;;;;5090952;28;20024;-74
2022/05/29 09:30:06;;;;;;;3.60;1.17;;;23.20;32.50;;;;;;5092427;28;20016;-74
2022/05/29 09:32:35;;;;;;;6.72;1.60;;;23.30;32.60;;;;;;5091251;28;20026;-74
2022/05/29 09:35:14;;;;;;;2.67;1.05;;;23.40;32.20;;;;;;5072282;28;20021;-73
2022/05/29 09:37:52;;;;;;;2.42;1.30;;;23.50;32.30;;;;;;5088035;28;20392;-74
2022/05/29 09:40:25;;;;;;;2.92;1.88;;;23.60;32.50;;;;;;5091162;28;20024;-73
2022/05/29 09:42:53;;;;;;;4.13;0.80;;;23.70;32.10;;;;;;5089180;28;20032;-73
2022/05/29 09:45:33;;;;;;;5.60;1.35;;;23.70;32.50;;;;;;5091107;28;20043;-73
2022/05/29 09:50:51;;;;;;;2.65;1.20;;;23.90;31.90;;;;;;5073364;28;20027;-73
2022/05/29 09:53:19;;;;;;;2.50;1.48;;;24.00;31.90;;;;;;5073327;28;20384;-74
2022/05/29 09:56:13;;;;;;;6.57;1.90;;;24.00;31.90;;;;;;5073467;28;20036;-74
2022/05/29 09:58:48;;;;;;;5.25;1.80;;;24.00;31.50;;;;;;5087105;28;20093;-73
2022/05/29 10:01:40;;;;;;;4.43;1.65;;;23.90;30.80;;;;;;5074042;28;20024;-73
2022/05/29 10:04:21;;;;;;;5.10;2.20;;;23.70;30.70;;;;;;5088996;28;20028;-73
2022/05/29 10:06:56;;;;;;;4.85;2.63;;;23.50;30.70;;;;;;5083267;28;20036;-73
2022/05/29 10:09:24;;;;;;;4.82;2.30;;;23.40;31.20;;;;;;5093462;28;20119;-73
2022/05/29 10:11:52;;;;;;;5.00;2.22;;;23.30;31.70;;;;;;5093411;28;20024;-73
2022/05/29 10:14:40;;;;;;;8.80;3.35;;;23.30;31.90;;;;;;5088931;28;20032;-74
2022/05/29 10:17:13;;;;;;;5.57;2.75;;;23.20;32.00;;;;;;5073423;28;20031;-73
2022/05/29 10:19:42;;;;;;;6.65;2.50;;;23.20;32.20;;;;;;5072934;28;20487;-73
2022/05/29 10:22:27;;;;;;;5.50;2.42;;;23.20;32.30;;;;;;5072865;28;20032;-73
2022/05/29 10:24:54;;;;;;;7.40;2.50;;;23.20;32.40;;;;;;5072913;28;20095;-74
2022/05/29 10:27:35;;;;;;;5.80;2.85;;;23.20;32.70;;;;;;5076720;28;20016;-73
2022/05/29 10:30:08;;;;;;;6.05;2.20;;;23.20;32.50;;;;;;5093480;28;20032;-73
2022/05/29 10:32:37;;;;;;;12.45;2.53;;;23.30;32.70;;;;;;5091996;28;20357;-73
2022/05/29 10:35:17;;;;;;;6.85;2.67;;;23.40;32.80;;;;;;5093220;28;20024;-74
2022/05/29 10:37:45;;;;;;;4.70;2.30;;;23.40;32.60;;;;;;5090948;28;20028;-73
2022/05/29 10:40:20;;;;;;;3.03;1.70;;;23.50;32.70;;;;;;5093132;28;20032;-74
2022/05/29 10:42:51;;;;;;;4.95;1.58;;;23.50;32.40;;;;;;5091729;28;20028;-73
2022/05/29 10:45:23;;;;;;;5.75;2.38;;;23.60;32.40;;;;;;5093151;28;20062;-73
2022/05/29 10:48:04;;;;;;;6.97;2.00;;;23.60;32.20;;;;;;5093400;28;20028;-74
2022/05/29 10:50:52;;;;;;;4.60;1.98;;;23.70;32.40;;;;;;5091316;28;20016;-73
2022/05/29 10:53:38;;;;;;;8.82;2.40;;;23.80;32.80;;;;;;5078920;28;20044;-73
2022/05/29 10:56:15;;;;;;;5.97;2.60;;;23.80;32.50;;;;;;5031312;28;20431;-74
2022/05/29 10:58:56;;;;;;;4.95;2.20;;;23.90;32.40;;;;;;5073714;28;20032;-73
2022/05/29 11:04:47;;;;;;;6.15;1.85;;;24.00;32.60;;;;;;5089181;28;20035;-73
2022/05/29 11:07:54;;;;;;;5.13;1.55;;;24.00;32.60;;;;;;5090956;28;20052;-73
2022/05/29 11:10:41;;;;;;;4.88;1.50;;;24.00;32.00;;;;;;5051682;28;20064;-74
2022/05/29 11:13:14;;;;;;;5.10;1.60;;;23.90;31.90;;;;;;5092560;28;20048;-73
2022/05/29 11:16:06;;;;;;;2.20;1.00;;;23.90;31.90;;;;;;5095028;28;20043;-74
2022/05/29 11:18:58;;;;;;;3.20;1.15;;;24.00;32.20;;;;;;5093327;28;20039;-73
2022/05/29 11:21:59;;;;;;;3.03;1.08;;;24.10;32.00;;;;;;5092838;28;20030;-74
2022/05/29 11:24:39;;;;;;;3.10;1.10;;;24.10;31.50;;;;;;5094095;28;20441;-73
2022/05/29 11:27:20;;;;;;;3.53;1.27;;;24.20;31.50;;;;;;5094713;28;20032;-74
2022/05/29 11:30:08;;;;;;;2.75;1.33;;;24.30;31.70;;;;;;5095081;28;20052;-74
2022/05/29 11:32:59;;;;;;;2.92;1.20;;;24.50;32.00;;;;;;5084166;28;20044;-73
2022/05/29 11:35:53;;;;;;;2.83;1.25;;;24.70;31.00;;;;;;5092044;28;20024;-73
2022/05/29 11:38:30;;;;;;;;;;;24.90;31.20;;;;;;5095361;28;20082;-73
2022/05/29 11:41:07;;;;;;;2.55;1.00;;;25.00;32.10;;;;;;5094772;28;19908;-73
2022/05/29 11:43:47;;;;;;;4.60;1.60;;;25.10;30.40;;;;;;5077829;28;20030;-73
2022/05/29 11:52:49;;;;;;;12.18;3.22;;;25.50;29.90;;;;;;5086145;28;20035;-73
2022/05/29 11:55:27;;;;;;;5.68;1.95;;;25.60;30.20;;;;;;5061308;28;20037;-73
2022/05/29 11:58:18;;;;;;;2.50;1.10;;;25.70;29.20;;;;;;5088998;28;20032;-73
2022/05/29 12:00:57;;;;;;;3.45;1.20;;;25.70;28.80;;;;;;5089573;28;20031;-73
2022/05/29 12:03:32;;;;;;;3.35;1.60;;;25.70;28.70;;;;;;5094311;28;20028;-72
2022/05/29 12:06:33;;;;;;;6.28;2.97;;;25.60;29.10;;;;;;5095568;28;20028;-72
2022/05/29 12:09:16;;;;;;;3.20;1.27;;;25.50;29.60;;;;;;5062107;28;20048;-72
2022/05/29 12:12:12;;;;;;;3.05;1.50;;;25.40;29.40;;;;;;5094216;28;20024;-72
2022/05/29 12:14:58;;;;;;;3.85;1.33;;;25.30;29.60;;;;;;5094139;28;20127;-72
2022/05/29 12:17:31;;;;;;;3.63;1.48;;;25.10;29.70;;;;;;5094010;28;20024;-72
2022/05/29 12:20:07;;;;;;;3.50;1.50;;;25.00;29.70;;;;;;5094019;28;20063;-72
2022/05/29 12:22:44;;;;;;;3.75;1.67;;;24.90;29.90;;;;;;5093860;28;20038;-72
2022/05/29 12:25:29;;;;;;;2.67;1.25;;;24.80;30.10;;;;;;5093862;28;20030;-72
2022/05/29 12:27:58;;;;;;;4.68;2.25;;;24.50;30.20;;;;;;5095267;28;20097;-72
2022/05/29 12:30:29;;;;;;;2.67;1.40;;;24.40;30.60;;;;;;5093688;28;20016;-72
2022/05/29 12:32:55;;;;;;;6.45;1.67;;;24.10;30.80;;;;;;5095165;28;20024;-72
2022/05/29 12:35:26;;;;;;;5.50;1.80;;;23.90;31.30;;;;;;5094975;28;20027;-72
2022/05/29 12:38:17;;;;;;;3.00;1.40;;;23.70;31.30;;;;;;5093718;28;20031;-72
2022/05/29 12:41:06;;;;;;;6.93;2.22;;;23.50;31.90;;;;;;5093662;28;20020;-72
2022/05/29 12:43:51;;;;;;;3.83;2.33;;;23.40;32.00;;;;;;5093423;28;20035;-72
2022/05/29 12:46:42;;;;;;;4.05;1.20;;;23.30;32.00;;;;;;5093376;28;20020;-73
2022/05/29 12:49:30;;;;;;;2.83;1.63;;;23.20;31.40;;;;;;5093458;28;20127;-72
2022/05/29 12:52:15;;;;;;;3.28;1.75;;;23.00;31.60;;;;;;5094847;28;20028;-72
2022/05/29 12:55:02;;;;;;;3.08;1.63;;;22.90;31.40;;;;;;5094496;28;20020;-72
2022/05/29 12:57:41;;;;;;;2.20;1.30;;;22.80;31.60;;;;;;5094631;28;20030;-72
2022/05/29 13:00:28;;;;;;;2.67;1.65;;;22.80;32.30;;;;;;5093366;28;20020;-72
2022/05/29 13:03:20;;;;;;;3.22;1.35;;;22.80;31.80;;;;;;5094628;28;20040;-72
2022/05/29 13:06:04;;;;;;;3.63;1.60;;;22.80;31.60;;;;;;5094535;28;20056;-72
2022/05/29 13:09:35;;;;;;;1.23;0.90;;;22.80;31.60;;;;;;5093915;28;20056;-72
2022/05/29 13:12:11;;;;;;;5.70;1.42;;;22.60;31.30;;;;;;4995696;28;20034;-72
2022/05/29 13:14:37;;;;;;;3.35;1.08;;;22.60;31.50;;;;;;4995555;28;20032;-72
2022/05/29 13:17:08;;;;;;;2.03;0.90;;;22.50;31.70;;;;;;5011919;28;20049;-72
2022/05/29 13:20:11;;;;;;;3.65;1.08;;;22.40;31.70;;;;;;4995439;28;20064;-73
2022/05/29 13:22:53;;;;;;;2.67;1.20;;;22.30;31.70;;;;;;4995344;28;20030;-73
2022/05/29 13:25:23;;;;;;;3.25;1.52;;;22.30;31.80;;;;;;5011465;28;20042;-72
2022/05/29 13:27:51;;;;;;;3.63;1.30;;;22.20;31.80;;;;;;5011729;28;20041;-73
2022/05/29 13:30:34;;;;;;;4.00;2.63;;;22.20;31.80;;;;;;4994751;28;20160;-73
2022/05/29 13:33:28;;;;;;;3.83;2.25;;;22.20;32.00;;;;;;5011619;28;20053;-72
2022/05/29 13:35:54;;;;;;;3.30;1.77;;;22.10;31.80;;;;;;4995221;28;20053;-72
2022/05/29 13:38:55;;;;;;;2.72;1.27;;;22.10;31.50;;;;;;5011474;28;20038;-72
2022/05/29 13:41:52;;;;;;;1.65;0.90;;;22.10;31.70;;;;;;4953069;29;20031;-72
2022/05/29 13:44:40;;;;;;;2.58;1.10;;;22.10;31.90;;;;;;4936985;29;20536;-72
2022/05/29 13:47:42;;;;;;;3.78;1.30;;;22.10;32.10;;;;;;5011508;28;20037;-72
2022/05/29 13:50:13;;;;;;;2.20;1.02;;;22.10;32.30;;;;;;4994931;28;20049;-72
2022/05/29 13:52:57;;;;;;;2.25;0.85;;;22.20;32.10;;;;;;4994697;28;20038;-73
2022/05/29 13:55:30;;;;;;;1.05;0.70;;;22.20;32.00;;;;;;5011403;28;20046;-73
2022/05/29 14:04:04;;;;;;;2.55;1.05;;;22.30;32.20;;;;;;5011318;28;20041;-73
2022/05/29 14:06:45;;;;;;;2.47;1.23;;;22.40;31.80;;;;;;5011135;28;20434;-73
2022/05/29 14:09:13;;;;;;;3.97;1.08;;;22.30;32.60;;;;;;4994386;28;20453;-73